INLO2: Newt Graham Lock And Dam (L&D 18)

Data processed at Thu Jan 23 2020 23:55


All information presented herein is the property of the government of the United States of America and may be revised or deleted at any time without prior notice.
Dissemination of this information without the expressed written consent of the Public Affairs Office, Tulsa District U.S. Army Corps of Engineers is strictly prohibited.
These data are gathered electronically and, as presented, have not undergone any form of quality control. These data are not guaranteed to be valid or correct.
Go to home page.
Go to station list.
Go to home page.

Upstream stations:

Downstream station:
Previous Day
Next Day
Current Day
    
SHEF ID:       INLO2     Newt Graham LD18
STATION TYPE:  NAVIGATION LOCK
Navigation Pool:  Bottom =   532.00, Top =   532.50

               PRECIP ELEVATION   STORAGE   TW-ELEV LOCK-ELEV    INFLOW   RELEASE    GATE-1    GATE-2    GATE-3  AIR-TEMP  WIND-DIRWIND-SPEED REL-HUMID SOLAR-RAD   VOLTAGE  BAT-LOAD
                   in        ft     ac-ft        ft        ft       cfs       cfs        ft        ft        ft         F       deg       mph         %      W/m2      volt      volt
              Ccp-Rev   Ccp-Rev   Ccp-Rev   Ccp-Rev   Ccp-Rev  Rev-Regi  Rev-Regi   Ccp-Rev   Ccp-Rev   Ccp-Rev   Ccp-Rev   Ccp-Rev   Ccp-Rev   Ccp-Rev   Ccp-Rev   Ccp-Rev   Ccp-Rev
(US/Central)
01/23 00:00      0.00    533.17     25293    514.88      ----     12994     12994      ----      ----      ----     36.75    160.40      2.50     98.89      0.00     13.48     12.89
01/23 01:00      0.01    533.18     25309    514.90      ----     13069     12994      ----      ----      ----     36.72    163.90      3.30     99.25      0.00     13.48     12.89
01/23 02:00      0.00    533.20     25340    514.92      ----     13332     12994      ----      ----      ----     36.88    171.80      2.40     99.41      0.00     13.48     12.97
01/23 03:00      0.00    533.21     25355    514.93      ----     13332     12994      ----      ----      ----     37.06    197.50      1.30     99.58      0.00     13.48     12.89
01/23 04:00      0.00    533.25     25417    514.97      ----     13332     12994      ----      ----      ----     37.04    170.30      1.70     99.86      0.00     13.48     12.89
01/23 05:00      0.00    533.26     25433    515.06      ----     13353     12994      ----      ----      ----     36.95    187.50      1.70     99.90      0.00     13.48     12.89
01/23 06:00      0.00    533.27     25448    515.12      ----     13599     12994      ----      ----      ----     36.70    215.70      2.30     99.92      0.00     13.48     12.89
01/23 07:00      0.00    533.18     25309    515.37      ----     13770     15162      ----      ----      ----     36.99    200.00      1.50     99.98      0.00     13.48     12.89
01/23 08:00      0.01    533.14     25247    515.48      ----     14241     15162      ----      ----      ----     36.81    205.60      2.70    100.00      0.00     13.48     12.89
01/23 09:00      0.00    533.11     25200    515.50      ----     14674     15162      ----      ----      ----     36.91    205.20      3.00    100.13      6.00     13.52     12.89
01/23 10:00      0.00    533.13     25231    515.50      ----     15049     15162      ----      ----      ----     37.74    213.30      3.20    100.00     29.90     13.52     12.97
01/23 11:00      0.00    533.14     25247    515.49      ----     15312     15162      ----      ----      ----     39.36    210.50      1.70     98.65     53.60     13.45     12.97
01/23 12:00      0.00    533.15     25262    515.47      ----     15350     15162      ----      ----      ----     42.30    235.30      2.20     92.27    195.20     13.47     13.29
01/23 13:00      0.00    533.18     25309    515.40      ----     15650     15162      ----      ----      ----     44.26    321.50      3.00     81.14     85.70     14.08     12.97
01/23 14:00      0.00    533.16     25278    515.47      ----     15800     15162      ----      ----      ----     46.35    298.90      5.00     75.78    185.50     13.47     13.05
01/23 15:00      0.00    533.26     25433    515.45      ----     15800     15162      ----      ----      ----     48.25    319.30      7.70     65.21    184.00     13.47     13.05
01/23 16:00      0.00    533.31     25510    515.43      ----     15987     15162      ----      ----      ----     49.37    325.70      6.90     59.01    126.40     13.46     12.97
01/23 17:00      0.00    533.32     25526    515.45      ----     15575     15162      ----      ----      ----     49.44    104.50      1.50     62.53     55.90     13.46     12.97
01/23 18:00      0.00    533.40     25650    515.45      ----     15162     15162      ----      ----      ----     48.49    207.20      1.30     66.46     10.70     13.48     12.97
01/23 19:00      0.00    533.27     25448    515.65      ----     14937     15162      ----      ----      ----     47.80    331.20     11.70     64.50      0.00     13.48     12.97
01/23 20:00      0.03    533.26     25433    515.76      ----     14899     15162      ----      ----      ----     43.29    315.20     11.50     77.38      0.00     13.49     12.97
01/23 21:00      0.00    533.25     25417    515.78      ----     14562     15162      ----      ----      ----     41.77    300.00      6.90     80.68      0.00     13.49     12.89
01/23 22:00      0.00    533.25     25417    515.82      ----     15049     15162      ----      ----      ----     41.32    322.30     11.00     76.18      0.00     13.49     12.89
01/23 23:00      0.00    533.24     25402    515.82      ----     15012     15162      ----      ----      ----     40.05    329.10     11.20     76.39      0.00     13.49     12.89